Time;durP1;ratioP1;P1;durP2;ratioP2;P2;SDS_P1;SDS_P2;PMS_P1;PMS_P2;Temp;Humidity;BMP_temperature;BMP_pressure;BME280_temperature;BME280_humidity;BME280_pressure;Samples;Min_cycle;Max_cycle;Signal;HPM_P1;HPM_P2
2023/03/06 00:00:44;;;;;;;22.13;12.15;;;3.60;74.80;;;;;;5053704;28;20296;-70
2023/03/06 00:03:11;;;;;;;14.70;9.50;;;3.60;74.70;;;;;;5053903;28;20309;-69
2023/03/06 00:05:40;;;;;;;16.85;9.32;;;3.60;74.50;;;;;;5053749;28;20186;-68
2023/03/06 00:08:07;;;;;;;16.40;9.57;;;3.60;74.70;;;;;;5053416;28;20254;-69
2023/03/06 00:10:34;;;;;;;17.38;10.63;;;3.60;74.70;;;;;;5052865;28;20284;-69
2023/03/06 00:13:02;;;;;;;15.25;8.98;;;3.60;74.80;;;;;;5060270;28;20186;-71
2023/03/06 00:15:30;;;;;;;19.98;10.85;;;3.60;74.90;;;;;;5053746;28;20733;-69
2023/03/06 00:17:57;;;;;;;19.23;9.93;;;3.60;75.10;;;;;;5057755;28;20189;-69
2023/03/06 00:20:26;;;;;;;15.48;8.82;;;3.50;75.20;;;;;;5060347;28;20281;-69
2023/03/06 00:22:56;;;;;;;15.85;9.80;;;3.50;75.40;;;;;;5053172;28;20190;-72
2023/03/06 00:25:23;;;;;;;14.75;8.80;;;3.50;75.60;;;;;;5052348;28;20182;-69
2023/03/06 00:27:51;;;;;;;16.13;9.40;;;3.40;75.60;;;;;;5051908;28;20234;-69
2023/03/06 00:30:20;;;;;;;21.98;12.00;;;3.40;75.90;;;;;;5052648;28;20190;-69
2023/03/06 00:32:47;;;;;;;19.73;9.70;;;3.40;76.20;;;;;;5058577;28;20273;-69
2023/03/06 00:35:15;;;;;;;17.40;10.10;;;3.40;76.20;;;;;;5053201;28;20195;-69
2023/03/06 00:37:42;;;;;;;20.88;9.82;;;3.40;75.90;;;;;;5053375;28;20614;-69
2023/03/06 00:40:14;;;;;;;14.45;9.15;;;3.40;75.90;;;;;;5052955;28;20229;-69
2023/03/06 00:42:41;;;;;;;16.15;8.95;;;3.40;75.60;;;;;;5050198;28;20269;-70
2023/03/06 00:45:09;;;;;;;18.27;10.07;;;3.30;75.50;;;;;;5059702;28;20186;-69
2023/03/06 00:47:36;;;;;;;17.08;10.13;;;3.30;75.60;;;;;;5052444;28;20212;-69
2023/03/06 00:50:04;;;;;;;17.52;8.98;;;3.30;75.80;;;;;;5052044;28;20222;-68
2023/03/06 00:52:31;;;;;;;18.42;9.20;;;3.30;75.90;;;;;;5053007;28;20601;-69
2023/03/06 00:54:58;;;;;;;16.63;9.18;;;3.20;76.00;;;;;;5056069;28;20225;-69
2023/03/06 00:57:26;;;;;;;20.55;10.50;;;3.20;76.30;;;;;;5051890;28;20201;-72
2023/03/06 00:59:53;;;;;;;25.90;11.43;;;3.10;76.50;;;;;;5049796;28;20251;-69
2023/03/06 01:02:20;;;;;;;15.30;9.65;;;3.20;76.60;;;;;;5052026;28;20261;-69
2023/03/06 01:04:47;;;;;;;22.52;10.57;;;3.10;76.50;;;;;;5053164;28;20201;-69
2023/03/06 01:07:14;;;;;;;20.27;10.27;;;3.10;76.60;;;;;;5051822;28;20249;-69
2023/03/06 01:09:41;;;;;;;16.38;8.65;;;3.00;76.50;;;;;;5064586;28;20224;-69
2023/03/06 01:12:09;;;;;;;16.13;10.23;;;3.00;76.50;;;;;;5055556;28;20189;-69
2023/03/06 01:14:38;;;;;;;17.17;9.98;;;2.90;76.40;;;;;;5057524;28;20193;-69
2023/03/06 01:17:05;;;;;;;19.85;9.68;;;2.90;76.40;;;;;;5052742;28;20194;-69
2023/03/06 01:19:32;;;;;;;18.88;12.00;;;2.80;76.70;;;;;;5053331;28;20285;-69
2023/03/06 01:21:59;;;;;;;21.98;11.15;;;2.70;76.70;;;;;;5051358;28;20197;-69
2023/03/06 01:24:27;;;;;;;20.52;9.68;;;2.60;76.90;;;;;;5050943;28;20193;-69
2023/03/06 01:26:54;;;;;;;15.20;8.98;;;2.50;77.30;;;;;;5051333;28;20320;-69
2023/03/06 01:29:21;;;;;;;17.85;10.15;;;2.50;77.60;;;;;;5051963;28;20186;-69
2023/03/06 01:31:49;;;;;;;18.25;8.70;;;2.40;78.40;;;;;;5051941;28;20235;-69
2023/03/06 01:34:16;;;;;;;17.33;10.27;;;2.30;78.70;;;;;;5056489;28;20253;-69
2023/03/06 01:36:44;;;;;;;19.52;9.05;;;2.30;79.90;;;;;;5056975;28;20311;-69
2023/03/06 01:39:12;;;;;;;19.52;10.02;;;2.20;79.90;;;;;;5056249;28;20700;-68
2023/03/06 01:41:39;;;;;;;14.73;8.75;;;2.20;80.70;;;;;;5052315;28;20195;-69
2023/03/06 01:44:06;;;;;;;20.40;9.60;;;2.10;80.80;;;;;;5054209;28;20246;-68
2023/03/06 01:46:40;;;;;;;16.30;9.30;;;2.10;81.30;;;;;;5051576;28;20219;-69
2023/03/06 01:49:14;;;;;;;15.20;9.25;;;2.10;81.50;;;;;;5053742;28;20364;-72
2023/03/06 01:51:54;;;;;;;16.75;9.43;;;2.00;81.80;;;;;;5034056;28;20289;-69
2023/03/06 01:54:26;;;;;;;16.13;8.85;;;2.00;81.90;;;;;;5052324;28;20192;-69
2023/03/06 01:56:56;;;;;;;18.30;9.80;;;2.00;82.20;;;;;;5051304;28;20197;-68
2023/03/06 01:59:25;;;;;;;17.08;9.23;;;2.00;82.40;;;;;;5053205;28;20239;-69
2023/03/06 02:01:54;;;;;;;18.38;9.05;;;1.90;82.70;;;;;;5051349;28;20282;-69
2023/03/06 02:04:24;;;;;;;20.20;10.65;;;1.90;82.60;;;;;;5057253;28;20688;-69
2023/03/06 02:06:51;;;;;;;17.15;9.75;;;1.90;83.00;;;;;;5052345;28;20216;-68
2023/03/06 02:09:22;;;;;;;18.90;10.82;;;1.90;83.20;;;;;;5069102;28;20218;-69
2023/03/06 02:11:49;;;;;;;15.73;9.00;;;1.90;83.30;;;;;;5050465;28;20197;-69
2023/03/06 02:14:23;;;;;;;16.90;8.80;;;1.80;83.30;;;;;;5060122;28;20200;-68
2023/03/06 02:16:51;;;;;;;15.63;9.85;;;1.80;83.60;;;;;;5051362;28;20543;-69
2023/03/06 02:19:35;;;;;;;21.17;10.32;;;1.80;82.80;;;;;;5064010;28;20192;-69
2023/03/06 02:22:03;;;;;;;14.35;9.13;;;1.70;84.30;;;;;;5051331;28;20208;-69
2023/03/06 02:24:38;;;;;;;19.00;9.90;;;1.70;84.10;;;;;;5058477;28;20192;-69
2023/03/06 02:27:09;;;;;;;18.52;9.82;;;1.60;84.70;;;;;;5052783;28;20386;-69
2023/03/06 02:29:36;;;;;;;17.92;9.75;;;1.60;85.50;;;;;;5071320;28;20191;-68
2023/03/06 02:32:04;;;;;;;17.98;9.00;;;1.60;85.80;;;;;;5056555;28;20203;-69
2023/03/06 02:34:57;;;;;;;12.52;8.57;;;1.50;86.20;;;;;;5054403;28;20225;-69
2023/03/06 02:37:26;;;;;;;19.58;9.95;;;1.60;86.60;;;;;;5056526;28;20197;-69
2023/03/06 02:40:03;;;;;;;19.98;10.82;;;1.60;86.50;;;;;;5054441;28;20291;-69
2023/03/06 02:42:32;;;;;;;12.88;9.18;;;1.50;86.20;;;;;;5054235;28;20196;-68
2023/03/06 02:45:02;;;;;;;15.75;8.45;;;1.50;86.10;;;;;;5054118;28;20197;-67
2023/03/06 02:47:29;;;;;;;16.73;9.25;;;1.50;85.70;;;;;;5055102;28;20215;-70
2023/03/06 02:49:56;;;;;;;20.35;9.38;;;1.50;85.70;;;;;;5054535;28;20205;-71
2023/03/06 02:52:24;;;;;;;24.45;9.38;;;1.50;85.50;;;;;;5054805;28;20244;-69
2023/03/06 02:54:51;;;;;;;16.67;8.70;;;1.50;85.00;;;;;;5053888;28;20282;-68
2023/03/06 02:57:18;;;;;;;18.05;9.23;;;1.40;85.00;;;;;;5054990;28;20196;-69
2023/03/06 02:59:48;;;;;;;15.35;9.93;;;1.40;85.00;;;;;;5054565;28;20611;-69
2023/03/06 03:02:15;;;;;;;16.55;9.10;;;1.40;85.20;;;;;;5057997;28;20301;-69
2023/03/06 03:04:42;;;;;;;18.50;11.55;;;1.40;85.40;;;;;;5053818;28;20226;-68
2023/03/06 03:07:09;;;;;;;19.15;10.95;;;1.40;85.20;;;;;;5058139;28;20667;-69
2023/03/06 03:09:36;;;;;;;17.08;10.40;;;1.40;85.40;;;;;;5054292;28;20201;-69
2023/03/06 03:12:05;;;;;;;25.83;10.88;;;1.30;85.60;;;;;;5055078;28;20193;-69
2023/03/06 03:14:33;;;;;;;19.33;10.60;;;1.30;85.90;;;;;;5054205;28;20201;-68
2023/03/06 03:17:02;;;;;;;19.35;11.57;;;1.30;86.20;;;;;;5055415;28;20277;-68
2023/03/06 03:19:29;;;;;;;18.85;11.70;;;1.20;85.80;;;;;;5054215;28;20191;-68
2023/03/06 03:21:56;;;;;;;25.05;12.15;;;1.20;86.30;;;;;;5055439;28;20197;-68
2023/03/06 03:24:29;;;;;;;18.25;9.75;;;1.10;86.50;;;;;;5054026;28;20481;-69
2023/03/06 03:26:57;;;;;;;16.92;10.93;;;1.10;87.40;;;;;;5055240;28;20201;-68
2023/03/06 03:29:24;;;;;;;18.92;10.90;;;1.20;87.10;;;;;;5053585;28;20497;-69
2023/03/06 03:31:51;;;;;;;20.75;11.85;;;1.10;87.20;;;;;;5054971;28;20193;-68
2023/03/06 03:34:20;;;;;;;16.50;10.20;;;1.10;87.40;;;;;;5054854;28;20195;-69
2023/03/06 03:36:47;;;;;;;17.02;10.35;;;1.10;87.40;;;;;;5054476;28;20192;-68
2023/03/06 03:39:14;;;;;;;14.02;10.18;;;1.10;87.50;;;;;;5058726;28;20214;-69
2023/03/06 03:41:41;;;;;;;17.60;10.88;;;1.10;87.40;;;;;;5053623;28;20191;-68
2023/03/06 03:44:14;;;;;;;17.40;9.93;;;1.10;87.70;;;;;;5053772;28;20193;-68
2023/03/06 03:46:42;;;;;;;20.35;11.77;;;1.10;87.40;;;;;;5053633;28;20206;-68
2023/03/06 03:49:09;;;;;;;17.48;11.05;;;1.10;87.30;;;;;;5054608;28;20522;-69
2023/03/06 03:51:38;;;;;;;22.98;11.98;;;1.10;87.70;;;;;;5066319;28;20200;-69
2023/03/06 03:54:06;;;;;;;17.80;8.90;;;1.10;87.40;;;;;;5061098;28;20188;-69
2023/03/06 03:56:34;;;;;;;19.88;10.52;;;1.10;87.80;;;;;;5056637;28;20268;-69
2023/03/06 03:59:01;;;;;;;18.15;10.55;;;1.20;88.10;;;;;;5054439;28;20181;-69
2023/03/06 04:01:28;;;;;;;21.65;10.55;;;1.20;87.60;;;;;;5066148;28;20225;-69
2023/03/06 04:03:55;;;;;;;18.10;10.32;;;1.20;87.00;;;;;;5057565;28;20189;-69
2023/03/06 04:06:22;;;;;;;19.25;10.20;;;1.20;86.60;;;;;;5053381;28;20207;-69
2023/03/06 04:08:52;;;;;;;18.77;9.63;;;1.30;86.80;;;;;;5053967;28;20213;-69
2023/03/06 04:11:19;;;;;;;16.08;8.93;;;1.30;86.60;;;;;;5064071;28;20551;-69
2023/03/06 04:13:46;;;;;;;15.98;10.80;;;1.30;87.00;;;;;;5060404;28;20964;-70
2023/03/06 04:16:13;;;;;;;17.80;10.80;;;1.30;86.90;;;;;;5053241;28;20280;-69
2023/03/06 04:18:41;;;;;;;18.17;10.65;;;1.40;86.80;;;;;;5052924;28;20205;-69
2023/03/06 04:21:08;;;;;;;21.95;11.52;;;1.40;86.80;;;;;;5053606;28;20196;-70
2023/03/06 04:23:35;;;;;;;17.75;10.30;;;1.50;86.50;;;;;;5052519;28;20678;-70
2023/03/06 04:26:04;;;;;;;15.18;11.10;;;1.50;86.40;;;;;;5064046;28;20184;-70
2023/03/06 04:28:32;;;;;;;22.42;11.55;;;1.50;86.20;;;;;;5052975;28;20709;-69
2023/03/06 04:30:59;;;;;;;21.02;11.05;;;1.50;86.00;;;;;;5054853;28;20235;-68
2023/03/06 04:33:27;;;;;;;22.25;11.60;;;1.50;86.30;;;;;;5053792;28;20194;-68
2023/03/06 04:35:54;;;;;;;20.95;11.85;;;1.50;86.20;;;;;;5052844;28;21015;-68
2023/03/06 04:38:21;;;;;;;22.23;13.30;;;1.60;86.10;;;;;;5057688;28;20569;-69
2023/03/06 04:40:49;;;;;;;21.00;11.27;;;1.50;86.60;;;;;;5053759;28;20288;-68
2023/03/06 04:43:18;;;;;;;21.27;11.70;;;1.50;86.50;;;;;;5052622;28;20240;-69
2023/03/06 04:45:45;;;;;;;20.90;11.02;;;1.50;86.70;;;;;;5053820;28;21637;-69
2023/03/06 04:48:14;;;;;;;16.80;9.57;;;1.60;86.90;;;;;;5052491;28;20559;-69
2023/03/06 04:50:41;;;;;;;20.20;10.30;;;1.70;86.70;;;;;;5052254;28;20193;-69
2023/03/06 04:53:09;;;;;;;23.77;10.77;;;1.70;86.90;;;;;;5052604;28;20193;-69
2023/03/06 04:55:37;;;;;;;20.55;10.27;;;1.70;87.00;;;;;;5052548;28;20197;-70
2023/03/06 04:58:06;;;;;;;19.45;10.57;;;1.80;87.10;;;;;;5052769;28;20599;-68
2023/03/06 05:00:35;;;;;;;16.90;10.55;;;1.80;87.10;;;;;;5053279;28;20212;-70
2023/03/06 05:03:02;;;;;;;20.27;9.90;;;1.90;87.00;;;;;;5052562;28;20316;-69
2023/03/06 05:05:30;;;;;;;15.98;9.52;;;1.90;86.80;;;;;;5053420;28;20569;-68
2023/03/06 05:07:58;;;;;;;19.50;10.77;;;1.90;86.80;;;;;;5049366;28;20224;-68
2023/03/06 05:10:25;;;;;;;15.95;10.13;;;1.90;86.70;;;;;;5057656;28;20259;-70
2023/03/06 05:12:52;;;;;;;17.45;10.63;;;1.90;86.50;;;;;;5057060;28;20637;-68
2023/03/06 05:15:19;;;;;;;16.10;10.32;;;1.90;86.70;;;;;;5055771;28;20193;-68
2023/03/06 05:17:49;;;;;;;16.30;9.68;;;1.90;86.60;;;;;;5060033;28;20269;-69
2023/03/06 05:20:17;;;;;;;18.42;10.00;;;2.00;86.60;;;;;;5061752;28;20196;-69
2023/03/06 05:22:46;;;;;;;17.95;10.32;;;2.00;86.70;;;;;;5058284;28;20207;-68
2023/03/06 05:25:13;;;;;;;18.67;10.25;;;2.00;86.20;;;;;;5062688;28;20277;-71
2023/03/06 05:27:42;;;;;;;17.50;9.18;;;2.00;86.70;;;;;;5062011;28;20555;-69
2023/03/06 05:30:13;;;;;;;22.38;10.50;;;2.00;86.70;;;;;;5057753;28;20238;-69
2023/03/06 05:32:40;;;;;;;14.57;9.15;;;2.00;86.70;;;;;;5061061;28;20258;-69
2023/03/06 05:35:19;;;;;;;16.48;9.23;;;2.00;87.00;;;;;;5061149;28;20243;-67
2023/03/06 05:37:47;;;;;;;16.85;9.52;;;2.00;87.00;;;;;;5061042;28;20279;-68
2023/03/06 05:40:15;;;;;;;17.70;9.32;;;2.00;87.00;;;;;;5061477;28;20609;-69
2023/03/06 05:42:43;;;;;;;16.65;8.77;;;2.00;87.10;;;;;;5057861;28;20557;-71
2023/03/06 05:45:11;;;;;;;20.85;11.02;;;2.10;87.50;;;;;;5048637;28;20204;-69
2023/03/06 05:47:39;;;;;;;15.95;10.18;;;2.10;87.60;;;;;;5051733;28;20189;-69
2023/03/06 05:50:09;;;;;;;20.58;10.38;;;2.10;87.40;;;;;;5053176;28;20204;-69
2023/03/06 05:52:36;;;;;;;18.30;10.57;;;2.10;87.20;;;;;;5058287;28;20198;-69
2023/03/06 05:55:04;;;;;;;14.70;8.95;;;2.20;87.30;;;;;;5058307;28;20195;-69
2023/03/06 05:57:31;;;;;;;17.48;9.32;;;2.20;86.90;;;;;;5056626;28;20670;-68
2023/03/06 05:59:58;;;;;;;19.70;10.05;;;2.20;87.10;;;;;;5060429;28;20605;-69
2023/03/06 06:02:25;;;;;;;24.52;10.77;;;2.20;86.90;;;;;;5059055;28;20302;-68
2023/03/06 06:04:52;;;;;;;23.10;9.50;;;2.20;87.00;;;;;;5059190;28;20652;-70
2023/03/06 06:07:21;;;;;;;14.13;9.82;;;2.20;87.10;;;;;;5061206;28;20193;-69
2023/03/06 06:09:48;;;;;;;12.77;9.10;;;2.30;87.20;;;;;;5056345;28;20328;-70
2023/03/06 06:12:15;;;;;;;15.38;8.10;;;2.30;86.80;;;;;;5051310;28;20518;-69
2023/03/06 06:14:42;;;;;;;17.10;11.50;;;2.30;86.50;;;;;;5059814;28;20592;-70
2023/03/06 06:17:11;;;;;;;17.13;8.35;;;2.30;86.40;;;;;;5049918;28;20198;-69
2023/03/06 06:19:38;;;;;;;15.88;9.73;;;2.30;86.20;;;;;;5049234;28;20221;-69
2023/03/06 06:22:06;;;;;;;15.60;8.43;;;2.30;86.20;;;;;;5052670;28;20223;-68
2023/03/06 06:24:35;;;;;;;19.42;9.57;;;2.30;86.00;;;;;;5049360;28;20208;-69
2023/03/06 06:27:02;;;;;;;18.55;9.57;;;2.30;86.60;;;;;;5053520;28;20544;-70
2023/03/06 06:29:29;;;;;;;17.58;9.48;;;2.30;87.20;;;;;;5049146;28;20236;-69
2023/03/06 06:31:57;;;;;;;15.77;9.57;;;2.40;87.30;;;;;;5055188;28;20199;-69
2023/03/06 06:34:25;;;;;;;17.73;11.00;;;2.60;89.50;;;;;;5049633;28;20237;-69
2023/03/06 06:36:53;;;;;;;18.27;10.05;;;2.80;88.60;;;;;;5050339;28;20195;-69
2023/03/06 06:39:22;;;;;;;14.60;10.18;;;2.90;86.60;;;;;;5048984;28;20244;-69
2023/03/06 06:41:51;;;;;;;21.40;11.27;;;2.80;86.10;;;;;;5050009;28;20190;-68
2023/03/06 06:44:19;;;;;;;13.93;9.13;;;2.80;85.90;;;;;;5049702;28;20198;-69
2023/03/06 06:46:47;;;;;;;19.48;10.52;;;2.80;85.50;;;;;;5049540;28;20305;-69
2023/03/06 06:49:17;;;;;;;20.73;10.07;;;2.80;85.00;;;;;;5049308;28;20302;-69
2023/03/06 06:51:44;;;;;;;19.73;11.27;;;2.80;84.50;;;;;;5052989;28;20189;-69
2023/03/06 06:54:12;;;;;;;18.08;10.45;;;2.80;85.00;;;;;;5051230;28;20277;-69
2023/03/06 06:56:44;;;;;;;15.70;9.30;;;2.90;85.20;;;;;;5050117;28;20198;-70
2023/03/06 06:59:12;;;;;;;20.73;9.65;;;2.90;85.40;;;;;;5046296;28;20212;-69
2023/03/06 07:01:39;;;;;;;16.65;11.25;;;2.90;86.30;;;;;;5052723;28;20237;-69
2023/03/06 07:04:07;;;;;;;22.92;10.82;;;2.90;85.50;;;;;;5049665;28;20197;-70
2023/03/06 07:06:34;;;;;;;21.45;10.00;;;3.00;85.70;;;;;;5049157;28;20197;-69
2023/03/06 07:09:01;;;;;;;16.98;12.18;;;3.00;85.50;;;;;;5049017;28;20190;-69
2023/03/06 07:11:28;;;;;;;20.42;11.52;;;3.10;85.50;;;;;;5049784;28;20185;-70
2023/03/06 07:13:55;;;;;;;30.17;12.43;;;3.10;85.40;;;;;;5051317;28;20181;-68
2023/03/06 07:16:24;;;;;;;24.40;13.18;;;3.20;85.30;;;;;;5054150;28;20551;-70
2023/03/06 07:18:51;;;;;;;20.42;13.00;;;3.20;85.00;;;;;;5052153;28;20218;-68
2023/03/06 07:21:18;;;;;;;24.58;15.95;;;3.20;84.60;;;;;;5052366;28;20555;-69
2023/03/06 07:23:45;;;;;;;24.02;13.63;;;3.30;84.20;;;;;;5051643;28;20255;-69
2023/03/06 07:26:12;;;;;;;26.17;14.32;;;3.30;83.60;;;;;;5048262;28;20198;-69
2023/03/06 07:28:39;;;;;;;25.55;12.60;;;3.40;83.10;;;;;;5051610;28;20252;-69
2023/03/06 07:31:10;;;;;;;21.17;10.93;;;3.50;83.10;;;;;;5052356;28;20197;-69
2023/03/06 07:33:39;;;;;;;21.65;10.98;;;3.50;82.70;;;;;;5051292;28;20277;-71
2023/03/06 07:36:11;;;;;;;21.42;11.10;;;3.60;82.30;;;;;;5051970;28;20186;-69
2023/03/06 07:38:38;;;;;;;20.98;12.00;;;3.70;82.40;;;;;;5050692;28;20203;-69
2023/03/06 07:41:08;;;;;;;23.17;11.65;;;3.80;82.40;;;;;;5051036;28;20194;-69
2023/03/06 07:43:35;;;;;;;18.23;10.57;;;3.80;82.20;;;;;;5051230;28;20187;-69
2023/03/06 07:46:02;;;;;;;18.85;11.57;;;3.90;82.10;;;;;;5047136;28;20198;-69
2023/03/06 07:48:30;;;;;;;18.48;10.05;;;4.00;82.30;;;;;;5051959;28;20672;-69
2023/03/06 07:51:02;;;;;;;18.17;10.77;;;4.10;82.70;;;;;;5051233;28;20194;-69
2023/03/06 07:53:31;;;;;;;22.50;12.38;;;4.20;83.10;;;;;;5051216;28;20198;-70
2023/03/06 07:55:58;;;;;;;28.83;13.15;;;4.30;83.00;;;;;;5051248;28;20236;-69
2023/03/06 07:58:28;;;;;;;22.85;12.93;;;4.40;82.60;;;;;;5050888;28;20201;-70
2023/03/06 08:00:55;;;;;;;21.40;12.70;;;4.50;82.40;;;;;;5050158;28;20205;-69
2023/03/06 08:03:23;;;;;;;21.70;13.07;;;4.50;81.70;;;;;;5048124;28;20604;-69
2023/03/06 08:05:50;;;;;;;21.80;12.95;;;4.60;81.20;;;;;;5050153;28;20210;-70
2023/03/06 08:08:20;;;;;;;23.25;13.60;;;4.70;80.90;;;;;;5050480;28;20248;-69
2023/03/06 08:10:48;;;;;;;20.35;13.45;;;4.80;80.10;;;;;;5051255;28;20285;-70
2023/03/06 08:13:18;;;;;;;20.98;12.82;;;5.00;79.30;;;;;;5051551;28;20282;-69
2023/03/06 08:15:49;;;;;;;21.27;12.93;;;5.10;77.80;;;;;;5051818;28;20202;-69
2023/03/06 08:18:16;;;;;;;20.75;12.02;;;5.20;77.10;;;;;;5052182;28;20629;-69
2023/03/06 08:20:43;;;;;;;20.65;12.63;;;5.30;76.50;;;;;;5050111;28;20692;-69
2023/03/06 08:23:11;;;;;;;18.73;11.95;;;5.30;75.00;;;;;;5049091;28;20591;-69
2023/03/06 08:25:39;;;;;;;23.35;12.02;;;5.40;74.80;;;;;;5051971;28;20213;-70
2023/03/06 08:28:07;;;;;;;24.05;11.13;;;5.50;75.30;;;;;;5051742;28;20199;-70
2023/03/06 08:30:34;;;;;;;27.58;11.88;;;5.60;74.70;;;;;;5051853;28;20198;-69
2023/03/06 08:33:01;;;;;;;26.42;12.25;;;5.60;73.90;;;;;;5051800;28;20187;-69
2023/03/06 08:35:28;;;;;;;21.65;11.93;;;5.60;73.30;;;;;;5051930;28;20246;-69
2023/03/06 08:37:56;;;;;;;21.90;12.05;;;5.60;73.20;;;;;;5050912;28;20224;-70
2023/03/06 08:40:25;;;;;;;20.63;11.40;;;5.50;73.20;;;;;;5055564;28;20601;-69
2023/03/06 08:42:54;;;;;;;22.23;12.60;;;5.60;73.20;;;;;;5054698;28;20588;-69
2023/03/06 08:45:22;;;;;;;19.23;11.05;;;5.60;73.50;;;;;;5052112;28;20186;-72
2023/03/06 08:47:54;;;;;;;18.55;11.48;;;5.60;73.40;;;;;;5051762;28;20601;-69
2023/03/06 08:50:21;;;;;;;18.90;10.55;;;5.70;72.00;;;;;;5051717;28;20194;-69
2023/03/06 08:52:59;;;;;;;21.50;12.98;;;5.70;70.60;;;;;;5051123;28;20526;-70
2023/03/06 08:55:27;;;;;;;21.95;12.05;;;5.60;68.30;;;;;;5051478;28;20186;-69
2023/03/06 08:57:57;;;;;;;19.25;11.88;;;5.70;68.30;;;;;;5051284;28;20281;-69
2023/03/06 09:00:27;;;;;;;20.85;12.32;;;5.80;68.30;;;;;;5051279;28;20326;-69
2023/03/06 09:02:54;;;;;;;20.80;11.25;;;5.90;68.20;;;;;;5046774;28;20689;-69
2023/03/06 09:05:21;;;;;;;18.88;10.88;;;6.00;67.70;;;;;;5051294;28;20186;-69
2023/03/06 09:07:52;;;;;;;18.27;10.77;;;6.00;66.70;;;;;;5051191;28;20190;-69
2023/03/06 09:10:21;;;;;;;20.13;11.18;;;6.00;67.10;;;;;;5050508;28;20191;-69
2023/03/06 09:12:48;;;;;;;16.27;10.95;;;6.00;66.60;;;;;;5050929;28;20190;-69
2023/03/06 09:15:17;;;;;;;18.20;11.10;;;6.00;65.90;;;;;;5050985;28;20194;-69
2023/03/06 09:17:46;;;;;;;21.30;11.57;;;6.00;64.90;;;;;;5051039;28;20198;-70
2023/03/06 09:20:14;;;;;;;20.55;11.70;;;6.00;65.20;;;;;;5050714;28;20680;-69
2023/03/06 09:22:42;;;;;;;20.52;11.60;;;6.00;65.80;;;;;;5050880;28;20205;-70
2023/03/06 09:25:12;;;;;;;18.02;11.85;;;6.00;66.30;;;;;;5054725;28;20179;-71
2023/03/06 09:27:41;;;;;;;24.30;11.15;;;6.00;66.70;;;;;;5050510;28;20600;-69
2023/03/06 09:30:11;;;;;;;20.70;12.32;;;5.90;65.80;;;;;;5056350;28;20677;-69
2023/03/06 09:32:39;;;;;;;21.73;12.13;;;5.90;65.40;;;;;;5051997;28;20186;-69
2023/03/06 09:35:10;;;;;;;19.75;11.57;;;6.00;65.20;;;;;;5049844;28;20237;-69
2023/03/06 09:37:37;;;;;;;21.30;12.82;;;6.00;65.00;;;;;;5052374;28;20201;-69
2023/03/06 09:40:06;;;;;;;21.27;13.27;;;6.00;64.90;;;;;;5050875;28;20214;-69
2023/03/06 09:42:34;;;;;;;25.80;13.05;;;6.00;64.90;;;;;;5053987;28;20273;-69
2023/03/06 09:45:02;;;;;;;22.30;12.70;;;6.00;65.60;;;;;;5053566;28;20194;-69
2023/03/06 09:47:47;;;;;;;22.48;14.93;;;6.10;65.90;;;;;;5050897;28;20226;-70
2023/03/06 09:50:28;;;;;;;19.27;12.27;;;6.20;65.20;;;;;;5053122;28;20187;-69
2023/03/06 09:53:37;;;;;;;19.98;11.43;;;6.30;64.40;;;;;;5053491;28;20226;-70
2023/03/06 09:56:13;;;;;;;23.80;12.80;;;6.40;63.30;;;;;;4965008;28;20220;-68
2023/03/06 09:58:44;;;;;;;26.20;13.88;;;6.40;62.80;;;;;;4969316;28;20241;-70
2023/03/06 10:01:19;;;;;;;25.63;14.90;;;6.50;62.80;;;;;;5013523;28;20226;-68
2023/03/06 10:03:53;;;;;;;25.13;13.85;;;6.60;62.10;;;;;;5048801;28;20190;-68
2023/03/06 10:06:25;;;;;;;21.70;11.10;;;6.70;62.20;;;;;;5052959;28;20554;-68
2023/03/06 10:08:58;;;;;;;22.90;14.20;;;6.80;61.80;;;;;;5050453;28;20201;-68
2023/03/06 10:11:31;;;;;;;21.40;12.52;;;7.00;60.90;;;;;;5051980;28;20627;-71
2023/03/06 10:14:11;;;;;;;24.75;14.20;;;7.10;59.80;;;;;;5048038;28;20698;-69
2023/03/06 10:16:40;;;;;;;20.35;11.95;;;7.10;59.90;;;;;;5054190;28;20273;-70
2023/03/06 10:19:20;;;;;;;21.73;13.23;;;7.10;59.30;;;;;;5051269;28;20194;-70
2023/03/06 10:21:56;;;;;;;19.95;12.52;;;7.10;59.50;;;;;;5054062;28;20226;-70
2023/03/06 10:24:44;;;;;;;27.10;14.20;;;7.20;59.10;;;;;;5054999;28;20303;-69
2023/03/06 10:27:22;;;;;;;22.73;13.38;;;7.10;58.20;;;;;;5051686;28;20196;-69
2023/03/06 10:29:56;;;;;;;26.33;14.57;;;7.10;57.70;;;;;;5058358;28;20525;-69
2023/03/06 10:32:29;;;;;;;23.42;14.00;;;7.10;57.70;;;;;;5058114;28;20701;-69
2023/03/06 10:35:01;;;;;;;25.98;15.65;;;7.00;57.70;;;;;;5056558;28;20190;-69
2023/03/06 10:37:29;;;;;;;20.20;12.57;;;7.00;57.70;;;;;;5053936;28;20298;-68
2023/03/06 10:40:03;;;;;;;24.90;15.18;;;7.00;57.20;;;;;;5054635;28;20587;-68
2023/03/06 10:42:34;;;;;;;23.25;15.02;;;6.90;57.80;;;;;;5056294;28;20194;-69
2023/03/06 10:45:09;;;;;;;19.90;11.90;;;6.90;57.90;;;;;;5054087;28;20248;-68
2023/03/06 10:47:38;;;;;;;24.00;12.80;;;6.90;58.20;;;;;;5056961;28;20233;-68
2023/03/06 10:50:23;;;;;;;25.75;13.95;;;6.80;58.00;;;;;;5058117;28;20200;-70
2023/03/06 10:53:03;;;;;;;21.30;13.65;;;6.80;58.20;;;;;;5057795;28;20259;-69
2023/03/06 10:55:32;;;;;;;28.02;13.00;;;6.70;57.80;;;;;;5058173;28;20194;-69
2023/03/06 10:58:17;;;;;;;20.20;12.70;;;6.70;57.80;;;;;;5055785;28;20220;-69
2023/03/06 11:00:45;;;;;;;25.17;13.68;;;6.70;57.40;;;;;;5049726;28;20237;-69
2023/03/06 11:03:22;;;;;;;24.55;13.77;;;6.60;57.20;;;;;;5057225;28;20194;-69
2023/03/06 11:06:08;;;;;;;24.05;12.80;;;6.60;57.10;;;;;;5056694;28;20189;-68
2023/03/06 11:08:37;;;;;;;20.85;11.70;;;6.60;57.40;;;;;;5054621;28;20225;-69
2023/03/06 11:11:06;;;;;;;22.70;12.57;;;6.60;57.80;;;;;;5062315;28;20526;-69
2023/03/06 11:13:35;;;;;;;22.60;12.65;;;6.60;57.80;;;;;;5061417;28;20289;-69
2023/03/06 11:16:05;;;;;;;27.85;14.20;;;6.60;57.70;;;;;;5055924;28;20190;-69
2023/03/06 11:18:36;;;;;;;30.17;14.95;;;6.60;57.20;;;;;;5064499;28;20189;-69
2023/03/06 11:21:24;;;;;;;23.88;12.23;;;6.60;57.30;;;;;;5056509;28;20222;-69
2023/03/06 11:23:52;;;;;;;23.88;13.70;;;6.60;57.70;;;;;;5050719;28;20202;-71
2023/03/06 11:26:46;;;;;;;35.28;14.23;;;6.60;57.60;;;;;;5056200;28;20197;-68
2023/03/06 11:29:29;;;;;;;23.88;14.68;;;6.50;57.20;;;;;;5052857;28;20209;-70
2023/03/06 11:31:59;;;;;;;21.02;12.93;;;6.40;57.30;;;;;;5054560;28;20218;-70
2023/03/06 11:34:38;;;;;;;22.45;13.20;;;6.40;57.30;;;;;;5055341;28;20228;-70
2023/03/06 11:37:11;;;;;;;21.67;12.77;;;6.40;57.40;;;;;;5051839;28;20206;-69
2023/03/06 11:39:43;;;;;;;24.75;13.80;;;6.30;57.60;;;;;;5053050;28;20720;-69
2023/03/06 11:42:17;;;;;;;21.10;11.18;;;6.30;57.60;;;;;;5049259;28;20190;-69
2023/03/06 11:44:54;;;;;;;21.17;11.73;;;6.30;58.00;;;;;;5051965;28;20216;-70
2023/03/06 11:47:25;;;;;;;21.33;13.35;;;6.30;57.70;;;;;;5049790;28;20190;-68
2023/03/06 11:50:01;;;;;;;24.20;12.82;;;6.30;57.40;;;;;;5051010;28;20566;-69
2023/03/06 11:52:45;;;;;;;20.85;12.52;;;6.30;57.40;;;;;;5049008;28;20212;-69
2023/03/06 11:55:16;;;;;;;23.23;14.30;;;6.30;56.90;;;;;;5052886;28;20273;-69
2023/03/06 11:57:52;;;;;;;22.35;12.13;;;6.30;56.60;;;;;;5049359;28;20186;-69
2023/03/06 12:00:29;;;;;;;16.92;11.15;;;6.30;56.30;;;;;;5052207;28;20271;-69
2023/03/06 12:03:33;;;;;;;17.92;10.23;;;6.20;55.70;;;;;;5049655;28;20308;-69
2023/03/06 12:06:04;;;;;;;20.48;11.00;;;6.20;56.10;;;;;;5051293;28;20225;-69
2023/03/06 12:08:53;;;;;;;16.23;9.98;;;6.20;56.30;;;;;;5052554;28;20277;-69
2023/03/06 12:11:25;;;;;;;18.95;10.60;;;6.20;54.80;;;;;;5052108;28;20744;-70
2023/03/06 12:14:34;;;;;;;15.93;9.30;;;6.20;54.90;;;;;;5049361;28;20198;-69
2023/03/06 12:17:12;;;;;;;17.60;9.48;;;6.20;55.10;;;;;;5028902;28;20198;-70
2023/03/06 12:19:54;;;;;;;14.80;9.25;;;6.20;55.20;;;;;;5052312;28;20288;-70
2023/03/06 12:22:34;;;;;;;14.98;8.00;;;6.20;54.20;;;;;;5050923;28;20186;-71
2023/03/06 12:25:19;;;;;;;16.60;8.73;;;6.20;54.20;;;;;;5052931;28;20277;-69
2023/03/06 12:28:11;;;;;;;13.70;7.95;;;6.30;53.80;;;;;;5049633;28;20577;-71
2023/03/06 12:31:02;;;;;;;13.27;7.95;;;6.30;54.00;;;;;;5050079;28;20191;-69
2023/03/06 12:33:39;;;;;;;12.75;7.53;;;6.40;54.20;;;;;;5045984;28;20198;-69
2023/03/06 12:36:35;;;;;;;14.55;9.90;;;6.50;54.10;;;;;;5051558;28;20277;-69
2023/03/06 12:39:16;;;;;;;13.27;8.15;;;6.50;53.50;;;;;;5050770;28;20224;-70
2023/03/06 12:42:12;;;;;;;16.98;8.98;;;6.60;52.90;;;;;;5049344;28;20261;-70
2023/03/06 12:44:55;;;;;;;14.15;7.57;;;6.70;52.70;;;;;;5049856;28;20194;-68
2023/03/06 12:47:25;;;;;;;12.00;6.93;;;6.70;52.20;;;;;;5048379;28;20565;-68
2023/03/06 12:49:56;;;;;;;12.43;8.07;;;6.70;51.20;;;;;;5051558;28;20194;-68
2023/03/06 12:52:27;;;;;;;14.50;8.55;;;6.80;51.20;;;;;;5051047;28;20187;-68
2023/03/06 12:54:57;;;;;;;12.02;7.32;;;6.80;51.30;;;;;;5051265;28;20194;-68
2023/03/06 12:57:26;;;;;;;10.15;6.55;;;6.90;51.50;;;;;;5051504;28;20194;-68